sensor_id;sensor_type;location;lat;lon;timestamp;temperature;humidity
27188;DHT22;14708;50.872;5.306;2022-07-15T00:00:39;24.70;46.50
27188;DHT22;14708;50.872;5.306;2022-07-15T00:03:05;24.70;46.80
27188;DHT22;14708;50.872;5.306;2022-07-15T00:05:30;24.70;46.70
27188;DHT22;14708;50.872;5.306;2022-07-15T00:08:04;24.70;46.70
27188;DHT22;14708;50.872;5.306;2022-07-15T00:10:30;24.70;46.60
27188;DHT22;14708;50.872;5.306;2022-07-15T00:12:57;24.70;46.50
27188;DHT22;14708;50.872;5.306;2022-07-15T00:15:26;24.70;46.70
27188;DHT22;14708;50.872;5.306;2022-07-15T00:17:53;24.70;46.80
27188;DHT22;14708;50.872;5.306;2022-07-15T00:20:20;24.70;46.70
27188;DHT22;14708;50.872;5.306;2022-07-15T00:22:47;24.70;46.80
27188;DHT22;14708;50.872;5.306;2022-07-15T00:25:14;24.70;47.00
27188;DHT22;14708;50.872;5.306;2022-07-15T00:28:00;24.70;47.00
27188;DHT22;14708;50.872;5.306;2022-07-15T00:30:34;24.70;47.00
27188;DHT22;14708;50.872;5.306;2022-07-15T00:33:00;24.70;47.10
27188;DHT22;14708;50.872;5.306;2022-07-15T00:35:27;24.70;47.20
27188;DHT22;14708;50.872;5.306;2022-07-15T00:37:53;24.60;47.30
27188;DHT22;14708;50.872;5.306;2022-07-15T00:40:19;24.60;47.10
27188;DHT22;14708;50.872;5.306;2022-07-15T00:42:45;24.60;47.20
27188;DHT22;14708;50.872;5.306;2022-07-15T00:45:22;24.60;47.30
27188;DHT22;14708;50.872;5.306;2022-07-15T00:47:50;24.60;47.30
27188;DHT22;14708;50.872;5.306;2022-07-15T00:50:17;24.60;47.50
27188;DHT22;14708;50.872;5.306;2022-07-15T00:52:48;24.60;47.40
27188;DHT22;14708;50.872;5.306;2022-07-15T00:55:14;24.60;47.50
27188;DHT22;14708;50.872;5.306;2022-07-15T00:57:42;24.60;47.70
27188;DHT22;14708;50.872;5.306;2022-07-15T01:00:09;24.60;47.60
27188;DHT22;14708;50.872;5.306;2022-07-15T01:02:40;24.60;47.70
27188;DHT22;14708;50.872;5.306;2022-07-15T01:05:16;24.60;47.70
27188;DHT22;14708;50.872;5.306;2022-07-15T01:07:42;24.60;47.70
27188;DHT22;14708;50.872;5.306;2022-07-15T01:10:08;24.60;47.70
27188;DHT22;14708;50.872;5.306;2022-07-15T01:12:35;24.60;47.70
27188;DHT22;14708;50.872;5.306;2022-07-15T01:15:04;24.60;47.70
27188;DHT22;14708;50.872;5.306;2022-07-15T01:17:30;24.60;47.90
27188;DHT22;14708;50.872;5.306;2022-07-15T01:19:56;24.60;48.10
27188;DHT22;14708;50.872;5.306;2022-07-15T01:22:22;24.50;48.00
27188;DHT22;14708;50.872;5.306;2022-07-15T01:24:47;24.60;48.00
27188;DHT22;14708;50.872;5.306;2022-07-15T01:27:13;24.60;48.10
27188;DHT22;14708;50.872;5.306;2022-07-15T01:29:39;24.50;48.10
27188;DHT22;14708;50.872;5.306;2022-07-15T01:32:04;24.60;48.10
27188;DHT22;14708;50.872;5.306;2022-07-15T01:34:30;24.50;48.00
27188;DHT22;14708;50.872;5.306;2022-07-15T01:36:56;24.50;48.20
27188;DHT22;14708;50.872;5.306;2022-07-15T01:39:22;24.50;48.20
27188;DHT22;14708;50.872;5.306;2022-07-15T01:41:49;24.50;48.20
27188;DHT22;14708;50.872;5.306;2022-07-15T01:44:18;24.50;48.30
27188;DHT22;14708;50.872;5.306;2022-07-15T01:46:43;24.50;48.40
27188;DHT22;14708;50.872;5.306;2022-07-15T01:49:09;24.50;48.60
27188;DHT22;14708;50.872;5.306;2022-07-15T01:51:58;24.50;48.50
27188;DHT22;14708;50.872;5.306;2022-07-15T01:54:25;24.50;48.50
27188;DHT22;14708;50.872;5.306;2022-07-15T01:56:52;24.50;48.50
27188;DHT22;14708;50.872;5.306;2022-07-15T01:59:19;24.50;48.60
27188;DHT22;14708;50.872;5.306;2022-07-15T02:01:45;24.40;48.50
27188;DHT22;14708;50.872;5.306;2022-07-15T02:04:11;24.50;48.60
27188;DHT22;14708;50.872;5.306;2022-07-15T02:06:38;24.50;48.90
27188;DHT22;14708;50.872;5.306;2022-07-15T02:09:04;24.50;48.80
27188;DHT22;14708;50.872;5.306;2022-07-15T02:11:29;24.50;49.00
27188;DHT22;14708;50.872;5.306;2022-07-15T02:13:58;24.50;48.90
27188;DHT22;14708;50.872;5.306;2022-07-15T02:16:28;24.40;48.80
27188;DHT22;14708;50.872;5.306;2022-07-15T02:18:54;24.40;48.80
27188;DHT22;14708;50.872;5.306;2022-07-15T02:21:20;24.40;48.90
27188;DHT22;14708;50.872;5.306;2022-07-15T02:23:46;24.40;49.00
27188;DHT22;14708;50.872;5.306;2022-07-15T02:26:11;24.40;49.00
27188;DHT22;14708;50.872;5.306;2022-07-15T02:28:37;24.40;49.00
27188;DHT22;14708;50.872;5.306;2022-07-15T02:31:03;24.40;49.00
27188;DHT22;14708;50.872;5.306;2022-07-15T02:33:29;24.40;49.00
27188;DHT22;14708;50.872;5.306;2022-07-15T02:35:54;24.40;49.70
27188;DHT22;14708;50.872;5.306;2022-07-15T02:38:20;24.40;49.00
27188;DHT22;14708;50.872;5.306;2022-07-15T02:40:48;24.40;49.00
27188;DHT22;14708;50.872;5.306;2022-07-15T02:43:13;24.40;49.00
27188;DHT22;14708;50.872;5.306;2022-07-15T02:45:40;24.40;49.10
27188;DHT22;14708;50.872;5.306;2022-07-15T02:48:06;24.40;49.20
27188;DHT22;14708;50.872;5.306;2022-07-15T02:50:32;24.40;49.10
27188;DHT22;14708;50.872;5.306;2022-07-15T02:52:58;24.40;49.20
27188;DHT22;14708;50.872;5.306;2022-07-15T02:55:24;24.30;49.20
27188;DHT22;14708;50.872;5.306;2022-07-15T02:57:50;24.40;49.20
27188;DHT22;14708;50.872;5.306;2022-07-15T03:00:24;24.40;49.20
27188;DHT22;14708;50.872;5.306;2022-07-15T03:02:49;24.40;49.30
27188;DHT22;14708;50.872;5.306;2022-07-15T03:05:15;24.40;49.30
27188;DHT22;14708;50.872;5.306;2022-07-15T03:07:42;24.40;49.30
27188;DHT22;14708;50.872;5.306;2022-07-15T03:10:10;24.40;49.40
27188;DHT22;14708;50.872;5.306;2022-07-15T03:12:36;24.30;49.50
27188;DHT22;14708;50.872;5.306;2022-07-15T03:15:02;24.40;49.60
27188;DHT22;14708;50.872;5.306;2022-07-15T03:17:28;24.30;49.50
27188;DHT22;14708;50.872;5.306;2022-07-15T03:19:54;24.30;49.30
27188;DHT22;14708;50.872;5.306;2022-07-15T03:22:22;24.30;49.20
27188;DHT22;14708;50.872;5.306;2022-07-15T03:24:48;24.30;49.70
27188;DHT22;14708;50.872;5.306;2022-07-15T03:27:14;24.30;49.70
27188;DHT22;14708;50.872;5.306;2022-07-15T03:29:41;24.30;49.70
27188;DHT22;14708;50.872;5.306;2022-07-15T03:32:07;24.30;49.80
27188;DHT22;14708;50.872;5.306;2022-07-15T03:34:33;24.30;49.70
27188;DHT22;14708;50.872;5.306;2022-07-15T03:36:58;24.30;49.70
27188;DHT22;14708;50.872;5.306;2022-07-15T03:39:26;24.30;49.80
27188;DHT22;14708;50.872;5.306;2022-07-15T03:41:54;24.30;49.90
27188;DHT22;14708;50.872;5.306;2022-07-15T03:44:28;24.30;50.00
27188;DHT22;14708;50.872;5.306;2022-07-15T03:46:54;24.30;50.00
27188;DHT22;14708;50.872;5.306;2022-07-15T03:49:19;24.30;50.10
27188;DHT22;14708;50.872;5.306;2022-07-15T03:51:45;24.30;50.10
27188;DHT22;14708;50.872;5.306;2022-07-15T03:54:11;24.30;50.10
27188;DHT22;14708;50.872;5.306;2022-07-15T03:56:37;24.30;50.30
27188;DHT22;14708;50.872;5.306;2022-07-15T03:59:03;24.30;50.10
27188;DHT22;14708;50.872;5.306;2022-07-15T04:01:28;24.20;50.20
27188;DHT22;14708;50.872;5.306;2022-07-15T04:03:54;24.20;50.00
27188;DHT22;14708;50.872;5.306;2022-07-15T04:06:20;24.20;50.10
27188;DHT22;14708;50.872;5.306;2022-07-15T04:08:46;24.30;50.10
27188;DHT22;14708;50.872;5.306;2022-07-15T04:11:13;24.20;50.30
27188;DHT22;14708;50.872;5.306;2022-07-15T04:13:39;24.20;50.10
27188;DHT22;14708;50.872;5.306;2022-07-15T04:16:06;24.20;50.20
27188;DHT22;14708;50.872;5.306;2022-07-15T04:18:32;24.20;50.40
27188;DHT22;14708;50.872;5.306;2022-07-15T04:20:58;24.20;50.30
27188;DHT22;14708;50.872;5.306;2022-07-15T04:23:24;24.20;50.40
27188;DHT22;14708;50.872;5.306;2022-07-15T04:25:53;24.20;50.30
27188;DHT22;14708;50.872;5.306;2022-07-15T04:28:22;24.20;50.30
27188;DHT22;14708;50.872;5.306;2022-07-15T04:30:49;24.20;50.40
27188;DHT22;14708;50.872;5.306;2022-07-15T04:33:15;24.20;50.50
27188;DHT22;14708;50.872;5.306;2022-07-15T04:35:41;24.20;50.30
27188;DHT22;14708;50.872;5.306;2022-07-15T04:38:07;24.20;50.50
27188;DHT22;14708;50.872;5.306;2022-07-15T04:40:33;24.20;50.30
27188;DHT22;14708;50.872;5.306;2022-07-15T04:42:59;24.20;50.70
27188;DHT22;14708;50.872;5.306;2022-07-15T04:45:25;24.20;50.50
27188;DHT22;14708;50.872;5.306;2022-07-15T04:47:51;24.20;50.50
27188;DHT22;14708;50.872;5.306;2022-07-15T04:50:16;24.20;50.60
27188;DHT22;14708;50.872;5.306;2022-07-15T04:53:01;24.20;50.60
27188;DHT22;14708;50.872;5.306;2022-07-15T04:55:27;24.20;50.60
27188;DHT22;14708;50.872;5.306;2022-07-15T04:57:53;24.20;51.20
27188;DHT22;14708;50.872;5.306;2022-07-15T05:00:28;24.10;50.50
27188;DHT22;14708;50.872;5.306;2022-07-15T05:02:54;24.10;50.60
27188;DHT22;14708;50.872;5.306;2022-07-15T05:05:20;24.20;50.30
27188;DHT22;14708;50.872;5.306;2022-07-15T05:07:46;24.20;50.30
27188;DHT22;14708;50.872;5.306;2022-07-15T05:10:12;24.20;50.40
27188;DHT22;14708;50.872;5.306;2022-07-15T05:12:38;24.20;50.40
27188;DHT22;14708;50.872;5.306;2022-07-15T05:15:05;24.20;50.40
27188;DHT22;14708;50.872;5.306;2022-07-15T05:17:30;24.20;50.30
27188;DHT22;14708;50.872;5.306;2022-07-15T05:19:56;24.20;50.40
27188;DHT22;14708;50.872;5.306;2022-07-15T05:22:22;24.20;50.30
27188;DHT22;14708;50.872;5.306;2022-07-15T05:24:48;24.20;50.40
27188;DHT22;14708;50.872;5.306;2022-07-15T05:27:14;24.20;50.60
27188;DHT22;14708;50.872;5.306;2022-07-15T05:29:40;24.10;50.50
27188;DHT22;14708;50.872;5.306;2022-07-15T05:32:06;24.10;50.40
27188;DHT22;14708;50.872;5.306;2022-07-15T05:34:32;24.10;50.40
27188;DHT22;14708;50.872;5.306;2022-07-15T05:36:58;24.20;50.50
27188;DHT22;14708;50.872;5.306;2022-07-15T05:39:24;24.20;50.70
27188;DHT22;14708;50.872;5.306;2022-07-15T05:41:51;24.20;50.50
27188;DHT22;14708;50.872;5.306;2022-07-15T05:44:17;24.20;50.70
27188;DHT22;14708;50.872;5.306;2022-07-15T05:46:45;24.10;50.60
27188;DHT22;14708;50.872;5.306;2022-07-15T05:49:10;24.20;50.80
27188;DHT22;14708;50.872;5.306;2022-07-15T05:51:36;24.20;50.60
27188;DHT22;14708;50.872;5.306;2022-07-15T05:54:02;24.20;50.60
27188;DHT22;14708;50.872;5.306;2022-07-15T05:56:28;24.20;50.40
27188;DHT22;14708;50.872;5.306;2022-07-15T05:58:54;24.30;50.50
27188;DHT22;14708;50.872;5.306;2022-07-15T06:01:20;24.30;50.40
27188;DHT22;14708;50.872;5.306;2022-07-15T06:03:47;24.30;50.40
27188;DHT22;14708;50.872;5.306;2022-07-15T06:06:12;24.40;50.10
27188;DHT22;14708;50.872;5.306;2022-07-15T06:08:38;24.40;50.50
27188;DHT22;14708;50.872;5.306;2022-07-15T06:11:04;24.40;50.60
27188;DHT22;14708;50.872;5.306;2022-07-15T06:13:30;24.30;50.60
27188;DHT22;14708;50.872;5.306;2022-07-15T06:15:56;24.30;50.80
27188;DHT22;14708;50.872;5.306;2022-07-15T06:18:21;24.30;50.10
27188;DHT22;14708;50.872;5.306;2022-07-15T06:20:47;24.30;49.80
27188;DHT22;14708;50.872;5.306;2022-07-15T06:23:13;24.30;49.90
27188;DHT22;14708;50.872;5.306;2022-07-15T06:25:38;24.30;48.90
27188;DHT22;14708;50.872;5.306;2022-07-15T06:28:04;24.30;48.90
27188;DHT22;14708;50.872;5.306;2022-07-15T06:30:39;24.30;48.60
27188;DHT22;14708;50.872;5.306;2022-07-15T06:33:05;24.30;49.10
27188;DHT22;14708;50.872;5.306;2022-07-15T06:35:30;24.30;48.60
27188;DHT22;14708;50.872;5.306;2022-07-15T06:37:56;24.20;48.70
27188;DHT22;14708;50.872;5.306;2022-07-15T06:40:21;24.20;48.40
27188;DHT22;14708;50.872;5.306;2022-07-15T06:42:47;24.20;48.60
27188;DHT22;14708;50.872;5.306;2022-07-15T06:45:13;24.20;48.00
27188;DHT22;14708;50.872;5.306;2022-07-15T06:47:42;24.20;47.70
27188;DHT22;14708;50.872;5.306;2022-07-15T06:50:09;24.20;47.80
27188;DHT22;14708;50.872;5.306;2022-07-15T06:52:35;24.10;47.60
27188;DHT22;14708;50.872;5.306;2022-07-15T06:55:01;24.10;47.40
27188;DHT22;14708;50.872;5.306;2022-07-15T06:57:27;24.00;47.40
27188;DHT22;14708;50.872;5.306;2022-07-15T06:59:54;24.00;47.30
27188;DHT22;14708;50.872;5.306;2022-07-15T07:02:19;24.00;47.30
27188;DHT22;14708;50.872;5.306;2022-07-15T07:04:45;24.00;47.20
27188;DHT22;14708;50.872;5.306;2022-07-15T07:07:11;24.00;47.50
27188;DHT22;14708;50.872;5.306;2022-07-15T07:09:39;24.00;47.50
27188;DHT22;14708;50.872;5.306;2022-07-15T07:12:08;24.10;47.20
27188;DHT22;14708;50.872;5.306;2022-07-15T07:14:33;24.00;47.30
27188;DHT22;14708;50.872;5.306;2022-07-15T07:16:59;24.00;47.50
27188;DHT22;14708;50.872;5.306;2022-07-15T07:19:25;24.00;47.60
27188;DHT22;14708;50.872;5.306;2022-07-15T07:21:50;24.10;47.60
27188;DHT22;14708;50.872;5.306;2022-07-15T07:24:16;24.10;48.00
27188;DHT22;14708;50.872;5.306;2022-07-15T07:26:41;24.10;47.80
27188;DHT22;14708;50.872;5.306;2022-07-15T07:29:07;24.10;47.60
27188;DHT22;14708;50.872;5.306;2022-07-15T07:31:33;24.10;47.60
27188;DHT22;14708;50.872;5.306;2022-07-15T07:33:59;24.10;47.60
27188;DHT22;14708;50.872;5.306;2022-07-15T07:36:25;24.10;47.30
27188;DHT22;14708;50.872;5.306;2022-07-15T07:38:51;24.10;47.50
27188;DHT22;14708;50.872;5.306;2022-07-15T07:41:17;24.10;47.60
27188;DHT22;14708;50.872;5.306;2022-07-15T07:43:43;24.10;48.10
27188;DHT22;14708;50.872;5.306;2022-07-15T07:46:11;24.20;47.90
27188;DHT22;14708;50.872;5.306;2022-07-15T07:48:38;24.30;47.20
27188;DHT22;14708;50.872;5.306;2022-07-15T07:51:04;24.30;47.00
27188;DHT22;14708;50.872;5.306;2022-07-15T07:53:38;24.30;45.90
27188;DHT22;14708;50.872;5.306;2022-07-15T07:56:03;24.20;44.50
27188;DHT22;14708;50.872;5.306;2022-07-15T07:58:29;24.20;44.20
27188;DHT22;14708;50.872;5.306;2022-07-15T08:00:55;24.10;44.10
27188;DHT22;14708;50.872;5.306;2022-07-15T08:03:21;24.10;44.40
27188;DHT22;14708;50.872;5.306;2022-07-15T08:05:46;24.10;44.50
27188;DHT22;14708;50.872;5.306;2022-07-15T08:08:14;24.10;44.20
27188;DHT22;14708;50.872;5.306;2022-07-15T08:10:42;24.10;44.00
27188;DHT22;14708;50.872;5.306;2022-07-15T08:13:08;24.00;44.30
27188;DHT22;14708;50.872;5.306;2022-07-15T08:15:34;24.00;44.20
27188;DHT22;14708;50.872;5.306;2022-07-15T08:18:00;24.10;44.60
27188;DHT22;14708;50.872;5.306;2022-07-15T08:20:28;24.10;44.80
27188;DHT22;14708;50.872;5.306;2022-07-15T08:22:55;24.10;44.00
27188;DHT22;14708;50.872;5.306;2022-07-15T08:25:28;24.00;44.00
27188;DHT22;14708;50.872;5.306;2022-07-15T08:27:57;24.00;44.30
27188;DHT22;14708;50.872;5.306;2022-07-15T08:30:25;24.00;44.20
27188;DHT22;14708;50.872;5.306;2022-07-15T08:32:51;24.10;44.50
27188;DHT22;14708;50.872;5.306;2022-07-15T08:35:17;24.10;44.50
27188;DHT22;14708;50.872;5.306;2022-07-15T08:37:43;24.10;44.90
27188;DHT22;14708;50.872;5.306;2022-07-15T08:40:09;24.20;45.00
27188;DHT22;14708;50.872;5.306;2022-07-15T08:42:37;24.20;45.10
27188;DHT22;14708;50.872;5.306;2022-07-15T08:45:06;24.20;43.90
27188;DHT22;14708;50.872;5.306;2022-07-15T08:47:32;24.20;43.40
27188;DHT22;14708;50.872;5.306;2022-07-15T08:49:59;24.20;43.60
27188;DHT22;14708;50.872;5.306;2022-07-15T08:52:25;24.20;42.70
27188;DHT22;14708;50.872;5.306;2022-07-15T08:54:51;24.30;42.60
27188;DHT22;14708;50.872;5.306;2022-07-15T08:57:18;24.30;43.70
27188;DHT22;14708;50.872;5.306;2022-07-15T08:59:44;24.40;44.00
27188;DHT22;14708;50.872;5.306;2022-07-15T09:02:13;24.30;44.00
27188;DHT22;14708;50.872;5.306;2022-07-15T09:16:05;24.40;44.90
27188;DHT22;14708;50.872;5.306;2022-07-15T09:18:34;24.30;44.80
27188;DHT22;14708;50.872;5.306;2022-07-15T09:21:00;24.40;44.60
27188;DHT22;14708;50.872;5.306;2022-07-15T09:23:28;24.40;44.30
27188;DHT22;14708;50.872;5.306;2022-07-15T09:26:38;24.40;44.30
27188;DHT22;14708;50.872;5.306;2022-07-15T09:29:05;24.40;44.10
27188;DHT22;14708;50.872;5.306;2022-07-15T09:31:56;24.30;44.70
27188;DHT22;14708;50.872;5.306;2022-07-15T09:35:04;24.40;44.50
27188;DHT22;14708;50.872;5.306;2022-07-15T09:37:30;24.40;44.40
27188;DHT22;14708;50.872;5.306;2022-07-15T09:39:57;24.50;43.30
27188;DHT22;14708;50.872;5.306;2022-07-15T09:42:23;24.40;43.30
27188;DHT22;14708;50.872;5.306;2022-07-15T09:44:49;24.40;43.30
27188;DHT22;14708;50.872;5.306;2022-07-15T09:47:18;24.40;43.00
27188;DHT22;14708;50.872;5.306;2022-07-15T09:49:44;24.40;42.60
27188;DHT22;14708;50.872;5.306;2022-07-15T09:52:19;24.40;43.10
27188;DHT22;14708;50.872;5.306;2022-07-15T09:54:46;24.40;43.20
27188;DHT22;14708;50.872;5.306;2022-07-15T09:57:15;24.40;43.60
27188;DHT22;14708;50.872;5.306;2022-07-15T09:59:46;24.40;43.50
27188;DHT22;14708;50.872;5.306;2022-07-15T10:02:12;24.40;43.60
27188;DHT22;14708;50.872;5.306;2022-07-15T10:04:38;24.40;43.70
27188;DHT22;14708;50.872;5.306;2022-07-15T10:07:05;24.50;43.50
27188;DHT22;14708;50.872;5.306;2022-07-15T10:09:33;24.40;42.90
27188;DHT22;14708;50.872;5.306;2022-07-15T10:12:23;24.50;43.60
27188;DHT22;14708;50.872;5.306;2022-07-15T10:15:21;24.50;43.00
27188;DHT22;14708;50.872;5.306;2022-07-15T10:33:45;24.50;42.50
27188;DHT22;14708;50.872;5.306;2022-07-15T10:39:17;24.50;42.00
27188;DHT22;14708;50.872;5.306;2022-07-15T10:42:00;24.50;42.20
27188;DHT22;14708;50.872;5.306;2022-07-15T10:44:33;24.50;42.30
27188;DHT22;14708;50.872;5.306;2022-07-15T10:49:40;24.40;42.40
27188;DHT22;14708;50.872;5.306;2022-07-15T10:52:16;24.40;42.60
27188;DHT22;14708;50.872;5.306;2022-07-15T10:54:45;24.50;43.30
27188;DHT22;14708;50.872;5.306;2022-07-15T10:57:11;24.50;42.20
27188;DHT22;14708;50.872;5.306;2022-07-15T10:59:50;24.40;42.00
27188;DHT22;14708;50.872;5.306;2022-07-15T11:02:17;24.50;42.10
27188;DHT22;14708;50.872;5.306;2022-07-15T11:04:44;24.50;42.10
27188;DHT22;14708;50.872;5.306;2022-07-15T11:17:38;24.70;42.30
27188;DHT22;14708;50.872;5.306;2022-07-15T11:23:00;24.70;42.60
27188;DHT22;14708;50.872;5.306;2022-07-15T11:25:35;24.70;42.70
27188;DHT22;14708;50.872;5.306;2022-07-15T11:28:13;24.70;42.60
27188;DHT22;14708;50.872;5.306;2022-07-15T11:30:45;24.70;42.80
27188;DHT22;14708;50.872;5.306;2022-07-15T11:33:19;24.70;42.60
27188;DHT22;14708;50.872;5.306;2022-07-15T11:35:53;24.70;42.60
27188;DHT22;14708;50.872;5.306;2022-07-15T11:38:22;24.80;43.00
27188;DHT22;14708;50.872;5.306;2022-07-15T11:41:01;24.80;43.00
27188;DHT22;14708;50.872;5.306;2022-07-15T11:43:49;24.80;42.70
27188;DHT22;14708;50.872;5.306;2022-07-15T11:46:43;24.90;42.40
27188;DHT22;14708;50.872;5.306;2022-07-15T11:49:09;24.90;42.30
27188;DHT22;14708;50.872;5.306;2022-07-15T11:51:35;24.90;42.30
27188;DHT22;14708;50.872;5.306;2022-07-15T11:54:01;24.90;43.00
27188;DHT22;14708;50.872;5.306;2022-07-15T11:56:26;24.90;43.20
27188;DHT22;14708;50.872;5.306;2022-07-15T11:58:54;24.90;43.20
27188;DHT22;14708;50.872;5.306;2022-07-15T12:01:24;24.90;43.30
27188;DHT22;14708;50.872;5.306;2022-07-15T12:03:51;24.90;42.70
27188;DHT22;14708;50.872;5.306;2022-07-15T12:06:32;24.90;42.90
27188;DHT22;14708;50.872;5.306;2022-07-15T12:09:00;24.90;43.10
27188;DHT22;14708;50.872;5.306;2022-07-15T12:14:09;24.80;43.30
27188;DHT22;14708;50.872;5.306;2022-07-15T12:19:26;24.80;42.50
27188;DHT22;14708;50.872;5.306;2022-07-15T12:21:54;24.80;40.30
27188;DHT22;14708;50.872;5.306;2022-07-15T12:24:22;24.80;41.70
27188;DHT22;14708;50.872;5.306;2022-07-15T12:29:21;24.90;42.60
27188;DHT22;14708;50.872;5.306;2022-07-15T12:31:57;24.90;42.60
27188;DHT22;14708;50.872;5.306;2022-07-15T12:37:17;24.80;43.10
27188;DHT22;14708;50.872;5.306;2022-07-15T12:40:05;24.80;43.00
27188;DHT22;14708;50.872;5.306;2022-07-15T12:45:14;24.80;42.90
27188;DHT22;14708;50.872;5.306;2022-07-15T12:50:57;24.80;43.00
27188;DHT22;14708;50.872;5.306;2022-07-15T12:53:25;24.80;42.90
27188;DHT22;14708;50.872;5.306;2022-07-15T12:55:53;24.80;42.70
27188;DHT22;14708;50.872;5.306;2022-07-15T12:58:27;24.80;42.70
27188;DHT22;14708;50.872;5.306;2022-07-15T13:01:10;24.80;42.70
27188;DHT22;14708;50.872;5.306;2022-07-15T13:03:36;24.80;42.70
27188;DHT22;14708;50.872;5.306;2022-07-15T13:06:02;24.80;42.60
27188;DHT22;14708;50.872;5.306;2022-07-15T13:08:34;24.80;42.60
27188;DHT22;14708;50.872;5.306;2022-07-15T13:11:03;24.80;42.70
27188;DHT22;14708;50.872;5.306;2022-07-15T13:13:32;24.80;42.60
27188;DHT22;14708;50.872;5.306;2022-07-15T13:15:59;24.90;42.70
27188;DHT22;14708;50.872;5.306;2022-07-15T13:18:31;24.90;43.50
27188;DHT22;14708;50.872;5.306;2022-07-15T13:20:57;24.90;42.90
27188;DHT22;14708;50.872;5.306;2022-07-15T13:23:23;24.80;43.00
27188;DHT22;14708;50.872;5.306;2022-07-15T13:25:49;24.80;43.00
27188;DHT22;14708;50.872;5.306;2022-07-15T13:28:17;24.80;43.00
27188;DHT22;14708;50.872;5.306;2022-07-15T13:30:43;24.80;43.10
27188;DHT22;14708;50.872;5.306;2022-07-15T13:33:08;24.80;43.30
27188;DHT22;14708;50.872;5.306;2022-07-15T13:35:34;24.90;43.40
27188;DHT22;14708;50.872;5.306;2022-07-15T13:38:00;24.90;43.60
27188;DHT22;14708;50.872;5.306;2022-07-15T13:40:26;24.90;43.40
27188;DHT22;14708;50.872;5.306;2022-07-15T13:42:51;24.90;43.40
27188;DHT22;14708;50.872;5.306;2022-07-15T13:45:17;24.90;43.40
27188;DHT22;14708;50.872;5.306;2022-07-15T13:47:43;24.90;43.50
27188;DHT22;14708;50.872;5.306;2022-07-15T13:50:10;24.90;43.60
27188;DHT22;14708;50.872;5.306;2022-07-15T13:52:57;24.90;43.50
27188;DHT22;14708;50.872;5.306;2022-07-15T13:55:23;24.90;43.60
27188;DHT22;14708;50.872;5.306;2022-07-15T13:57:49;24.90;43.70
27188;DHT22;14708;50.872;5.306;2022-07-15T14:00:19;24.90;43.60
27188;DHT22;14708;50.872;5.306;2022-07-15T14:02:51;24.90;43.50
27188;DHT22;14708;50.872;5.306;2022-07-15T14:05:18;24.90;43.60
27188;DHT22;14708;50.872;5.306;2022-07-15T14:07:43;24.90;43.60
27188;DHT22;14708;50.872;5.306;2022-07-15T14:10:10;24.90;43.60
27188;DHT22;14708;50.872;5.306;2022-07-15T14:12:36;24.90;43.60
27188;DHT22;14708;50.872;5.306;2022-07-15T14:15:02;24.90;43.70
27188;DHT22;14708;50.872;5.306;2022-07-15T14:17:28;25.00;43.80
27188;DHT22;14708;50.872;5.306;2022-07-15T14:19:56;25.00;43.80
27188;DHT22;14708;50.872;5.306;2022-07-15T14:22:23;25.00;43.80
27188;DHT22;14708;50.872;5.306;2022-07-15T14:24:51;25.00;43.80
27188;DHT22;14708;50.872;5.306;2022-07-15T14:27:18;25.10;44.00
27188;DHT22;14708;50.872;5.306;2022-07-15T14:29:44;25.00;43.80
27188;DHT22;14708;50.872;5.306;2022-07-15T14:32:10;25.10;44.10
27188;DHT22;14708;50.872;5.306;2022-07-15T14:34:35;25.10;44.20
27188;DHT22;14708;50.872;5.306;2022-07-15T14:37:01;25.20;44.00
27188;DHT22;14708;50.872;5.306;2022-07-15T14:39:27;25.10;43.90
27188;DHT22;14708;50.872;5.306;2022-07-15T14:41:52;25.10;43.90
27188;DHT22;14708;50.872;5.306;2022-07-15T14:44:18;25.10;44.10
27188;DHT22;14708;50.872;5.306;2022-07-15T14:46:43;25.00;44.10
27188;DHT22;14708;50.872;5.306;2022-07-15T14:49:09;25.00;43.90
27188;DHT22;14708;50.872;5.306;2022-07-15T14:51:35;25.00;44.30
27188;DHT22;14708;50.872;5.306;2022-07-15T14:54:00;25.10;45.50
27188;DHT22;14708;50.872;5.306;2022-07-15T14:56:26;25.10;44.40
27188;DHT22;14708;50.872;5.306;2022-07-15T14:58:52;25.20;44.20
27188;DHT22;14708;50.872;5.306;2022-07-15T15:01:17;25.20;44.00
27188;DHT22;14708;50.872;5.306;2022-07-15T15:03:43;25.30;44.40
27188;DHT22;14708;50.872;5.306;2022-07-15T15:06:10;25.30;45.30
27188;DHT22;14708;50.872;5.306;2022-07-15T15:08:36;25.40;45.50
27188;DHT22;14708;50.872;5.306;2022-07-15T15:11:03;25.40;45.10
27188;DHT22;14708;50.872;5.306;2022-07-15T15:13:32;25.30;44.80
27188;DHT22;14708;50.872;5.306;2022-07-15T15:15:58;25.30;44.70
27188;DHT22;14708;50.872;5.306;2022-07-15T15:18:23;25.30;43.70
27188;DHT22;14708;50.872;5.306;2022-07-15T15:20:49;25.30;43.10
27188;DHT22;14708;50.872;5.306;2022-07-15T15:23:15;25.30;44.50
27188;DHT22;14708;50.872;5.306;2022-07-15T15:25:40;25.40;44.70
27188;DHT22;14708;50.872;5.306;2022-07-15T15:28:24;25.50;44.70
27188;DHT22;14708;50.872;5.306;2022-07-15T15:30:50;25.60;44.70
27188;DHT22;14708;50.872;5.306;2022-07-15T15:33:15;25.50;44.50
27188;DHT22;14708;50.872;5.306;2022-07-15T15:35:41;25.60;44.50
27188;DHT22;14708;50.872;5.306;2022-07-15T15:38:07;25.50;44.20
27188;DHT22;14708;50.872;5.306;2022-07-15T15:40:53;25.60;44.00
27188;DHT22;14708;50.872;5.306;2022-07-15T15:43:18;25.50;43.50
27188;DHT22;14708;50.872;5.306;2022-07-15T15:45:44;25.50;42.50
27188;DHT22;14708;50.872;5.306;2022-07-15T15:48:09;25.50;41.50
27188;DHT22;14708;50.872;5.306;2022-07-15T15:50:35;25.50;41.90
27188;DHT22;14708;50.872;5.306;2022-07-15T15:53:01;25.40;40.70
27188;DHT22;14708;50.872;5.306;2022-07-15T15:55:26;25.50;41.40
27188;DHT22;14708;50.872;5.306;2022-07-15T15:57:52;25.50;42.90
27188;DHT22;14708;50.872;5.306;2022-07-15T16:00:17;25.60;42.90
27188;DHT22;14708;50.872;5.306;2022-07-15T16:02:43;25.70;43.40
27188;DHT22;14708;50.872;5.306;2022-07-15T16:05:09;25.70;42.80
27188;DHT22;14708;50.872;5.306;2022-07-15T16:07:35;25.70;42.70
27188;DHT22;14708;50.872;5.306;2022-07-15T16:10:01;25.70;43.30
27188;DHT22;14708;50.872;5.306;2022-07-15T16:12:27;25.80;42.60
27188;DHT22;14708;50.872;5.306;2022-07-15T16:15:00;25.80;42.90
27188;DHT22;14708;50.872;5.306;2022-07-15T16:17:28;25.80;42.10
27188;DHT22;14708;50.872;5.306;2022-07-15T16:19:54;25.80;42.80
27188;DHT22;14708;50.872;5.306;2022-07-15T16:22:20;25.90;42.90
27188;DHT22;14708;50.872;5.306;2022-07-15T16:25:05;25.80;43.30
27188;DHT22;14708;50.872;5.306;2022-07-15T16:27:31;25.80;42.80
27188;DHT22;14708;50.872;5.306;2022-07-15T16:29:57;25.70;41.30
27188;DHT22;14708;50.872;5.306;2022-07-15T16:32:23;25.70;40.80
27188;DHT22;14708;50.872;5.306;2022-07-15T16:34:49;25.70;40.30
27188;DHT22;14708;50.872;5.306;2022-07-15T16:37:14;25.70;40.20